createdAt,value
2023-04-16T00:00:03.911Z,79.75
2023-04-16T00:02:32.108Z,79.97
2023-04-16T00:04:59.877Z,80.26
2023-04-16T00:07:27.572Z,80.11
2023-04-16T00:09:55.666Z,80.08
2023-04-16T00:12:23.778Z,79.88
2023-04-16T00:14:51.471Z,79.92
2023-04-16T00:17:19.134Z,80.31
2023-04-16T00:19:46.785Z,79.82
2023-04-16T00:22:14.466Z,79.96
2023-04-16T00:24:42.273Z,80.33
2023-04-16T00:27:09.972Z,80.41
2023-04-16T00:29:37.606Z,80.19
2023-04-16T00:32:05.940Z,80.09
2023-04-16T00:34:33.589Z,79.84
2023-04-16T00:37:01.482Z,79.98
2023-04-16T00:39:29.146Z,79.85
2023-04-16T00:41:56.851Z,80.15
2023-04-16T00:44:24.530Z,80.56
2023-04-16T00:46:52.297Z,79.98
2023-04-16T00:49:20.017Z,79.98
2023-04-16T00:51:48.152Z,80.29
2023-04-16T00:54:15.983Z,80.53
2023-04-16T00:56:44.598Z,80.02
2023-04-16T00:59:12.524Z,80.74
2023-04-16T01:01:40.609Z,80.50
2023-04-16T01:04:08.651Z,80.56
2023-04-16T01:06:36.479Z,80.30
2023-04-16T01:09:04.210Z,80.55
2023-04-16T01:11:32.091Z,80.41
2023-04-16T01:13:59.705Z,80.47
2023-04-16T01:16:27.461Z,80.78
2023-04-16T01:18:55.144Z,80.57
2023-04-16T01:21:22.779Z,80.73
2023-04-16T01:23:50.563Z,80.86
2023-04-16T01:26:18.208Z,80.66
2023-04-16T01:28:45.916Z,80.25
2023-04-16T01:31:13.595Z,80.36
2023-04-16T01:33:41.328Z,80.58
2023-04-16T01:36:09.000Z,80.41
2023-04-16T01:38:36.677Z,81.28
2023-04-16T01:41:04.304Z,80.85
2023-04-16T01:43:31.984Z,80.88
2023-04-16T01:46:15.248Z,80.54
2023-04-16T01:48:43.133Z,81.07
2023-04-16T01:51:10.977Z,80.97
2023-04-16T01:53:38.726Z,80.73
2023-04-16T01:56:06.863Z,81.08
2023-04-16T01:58:35.759Z,81.13
2023-04-16T02:01:04.528Z,80.98
2023-04-16T02:03:32.659Z,80.86
2023-04-16T02:06:01.529Z,80.81
2023-04-16T02:08:29.201Z,80.79
2023-04-16T02:10:57.576Z,81.12
2023-04-16T02:13:26.140Z,80.81
2023-04-16T02:15:53.940Z,80.99
2023-04-16T02:18:21.584Z,81.17
2023-04-16T02:20:51.888Z,81.22
2023-04-16T02:23:19.534Z,80.91
2023-04-16T02:25:47.702Z,81.33
2023-04-16T02:28:17.128Z,81.70
2023-04-16T02:30:45.298Z,81.66
2023-04-16T02:33:13.295Z,81.18
2023-04-16T02:35:41.350Z,81.42
2023-04-16T02:38:09.284Z,81.53
2023-04-16T02:40:37.062Z,81.55
2023-04-16T02:43:04.722Z,81.50
2023-04-16T02:45:32.445Z,81.36
2023-04-16T02:48:00.957Z,81.57
2023-04-16T02:50:28.767Z,81.74
2023-04-16T02:52:56.493Z,81.57
2023-04-16T02:55:24.269Z,81.75
2023-04-16T02:57:53.082Z,81.51
2023-04-16T03:00:20.840Z,81.83
2023-04-16T03:02:48.656Z,81.85
2023-04-16T03:05:16.621Z,81.41
2023-04-16T03:07:44.326Z,81.66
2023-04-16T03:10:12.485Z,81.91
2023-04-16T03:12:40.131Z,81.51
2023-04-16T03:15:08.511Z,81.52
2023-04-16T03:17:36.447Z,81.69
2023-04-16T03:20:05.778Z,81.82
2023-04-16T03:22:33.468Z,81.77
2023-04-16T03:25:01.425Z,81.84
2023-04-16T03:27:29.092Z,82.18
2023-04-16T03:29:57.245Z,82.07
2023-04-16T03:32:24.949Z,82.31
2023-04-16T03:34:52.783Z,81.62
2023-04-16T03:37:20.547Z,82.56
2023-04-16T03:39:48.208Z,82.10
2023-04-16T03:42:16.157Z,81.87
2023-04-16T03:44:43.955Z,81.83
2023-04-16T03:47:11.716Z,81.97
2023-04-16T03:49:39.359Z,81.99
2023-04-16T03:52:07.420Z,81.87
2023-04-16T03:54:35.103Z,81.56
2023-04-16T03:57:03.068Z,82.23
2023-04-16T03:59:30.833Z,81.98
2023-04-16T04:01:58.495Z,82.00
2023-04-16T04:04:26.426Z,81.85
2023-04-16T04:06:54.365Z,82.14
2023-04-16T04:09:22.093Z,81.77
2023-04-16T04:11:50.635Z,82.33
2023-04-16T04:14:18.333Z,82.21
2023-04-16T04:16:46.430Z,81.98
2023-04-16T04:19:14.270Z,82.36
2023-04-16T04:21:41.902Z,82.29
2023-04-16T04:24:09.668Z,82.50
2023-04-16T04:26:37.536Z,82.19
2023-04-16T04:29:05.838Z,82.15
2023-04-16T04:31:33.662Z,82.23
2023-04-16T04:34:01.392Z,81.92
2023-04-16T04:36:29.122Z,82.48
2023-04-16T04:38:56.814Z,82.23
2023-04-16T04:41:24.759Z,82.24
2023-04-16T04:43:52.648Z,82.24
2023-04-16T04:46:20.563Z,82.30
2023-04-16T04:48:48.446Z,82.85
2023-04-16T04:51:16.081Z,82.05
2023-04-16T04:53:43.770Z,82.43
2023-04-16T04:56:13.031Z,82.57
2023-04-16T04:58:41.985Z,82.89
2023-04-16T05:01:09.805Z,82.70
2023-04-16T05:03:37.803Z,82.44
2023-04-16T05:06:07.090Z,81.94
2023-04-16T05:08:34.718Z,82.50
2023-04-16T05:11:02.513Z,82.74
2023-04-16T05:13:30.157Z,82.66
2023-04-16T05:15:57.943Z,82.38
2023-04-16T05:18:25.602Z,82.59
2023-04-16T05:20:53.362Z,82.80
2023-04-16T05:23:21.028Z,82.50
2023-04-16T05:25:48.688Z,82.57
2023-04-16T05:28:16.346Z,82.34
2023-04-16T05:30:44.095Z,82.51
2023-04-16T05:33:11.751Z,82.46
2023-04-16T05:35:39.465Z,82.47
2023-04-16T05:38:07.178Z,82.69
2023-04-16T05:40:34.860Z,82.65
2023-04-16T05:43:02.618Z,82.39
2023-04-16T05:45:31.502Z,82.23
2023-04-16T05:47:59.228Z,82.08
2023-04-16T05:50:27.030Z,82.00
2023-04-16T05:52:54.790Z,81.96
2023-04-16T05:55:22.876Z,82.41
2023-04-16T05:57:50.636Z,81.98
2023-04-16T06:00:18.581Z,81.81
2023-04-16T06:02:46.465Z,81.91
2023-04-16T06:05:14.662Z,81.46
2023-04-16T06:07:42.739Z,81.82
2023-04-16T06:10:10.996Z,81.33
2023-04-16T06:12:38.651Z,81.03
2023-04-16T06:15:07.402Z,81.41
2023-04-16T06:17:35.170Z,81.09
2023-04-16T06:20:03.080Z,81.09
2023-04-16T06:22:31.033Z,80.77
2023-04-16T06:24:58.837Z,81.27
2023-04-16T06:27:27.277Z,81.13
2023-04-16T06:29:54.920Z,81.12
2023-04-16T06:32:22.810Z,81.19
2023-04-16T06:34:50.969Z,80.98
2023-04-16T06:37:18.593Z,81.15
2023-04-16T06:39:46.215Z,81.13
2023-04-16T06:42:14.077Z,80.76
2023-04-16T06:44:41.759Z,80.68
2023-04-16T06:47:09.628Z,80.79
2023-04-16T06:49:37.542Z,80.58
2023-04-16T06:52:06.155Z,80.81
2023-04-16T06:54:34.197Z,80.15
2023-04-16T06:57:02.166Z,80.29
2023-04-16T06:59:29.899Z,79.72
2023-04-16T07:01:57.816Z,79.75
2023-04-16T07:04:26.243Z,80.62
2023-04-16T07:06:54.075Z,80.02
2023-04-16T07:09:21.810Z,80.54
2023-04-16T07:11:49.451Z,80.23
2023-04-16T07:14:17.440Z,79.71
2023-04-16T07:16:45.129Z,80.06
2023-04-16T07:19:12.966Z,79.61
2023-04-16T07:21:43.645Z,79.23
2023-04-16T07:24:11.856Z,79.71
2023-04-16T07:26:39.636Z,79.49
2023-04-16T07:29:07.640Z,79.61
2023-04-16T07:31:35.712Z,79.46
2023-04-16T07:34:03.669Z,79.19
2023-04-16T07:36:32.016Z,78.63
2023-04-16T07:38:59.795Z,78.72
2023-04-16T07:41:29.575Z,79.10
2023-04-16T07:43:57.770Z,79.07
2023-04-16T07:46:30.539Z,78.97
2023-04-16T07:49:03.825Z,78.96
2023-04-16T07:51:31.615Z,78.81
2023-04-16T07:53:59.283Z,78.86
2023-04-16T07:56:27.644Z,77.92
2023-04-16T07:58:55.528Z,78.15
2023-04-16T08:01:23.269Z,78.68
2023-04-16T08:03:51.317Z,78.18
2023-04-16T08:06:19.200Z,78.27
2023-04-16T08:08:46.883Z,78.30
2023-04-16T08:11:15.368Z,78.39
2023-04-16T08:13:43.210Z,77.67
2023-04-16T08:16:11.270Z,78.18
2023-04-16T08:18:38.955Z,77.76
2023-04-16T08:21:06.675Z,77.52
2023-04-16T08:23:34.569Z,78.05
2023-04-16T08:26:02.338Z,78.05
2023-04-16T08:28:30.085Z,77.92
2023-04-16T08:30:57.894Z,77.18
2023-04-16T08:33:25.759Z,76.37
2023-04-16T08:35:53.407Z,76.38
2023-04-16T08:38:21.158Z,76.70
2023-04-16T08:40:49.018Z,76.76
2023-04-16T08:43:18.233Z,76.42
2023-04-16T08:45:47.693Z,76.91
2023-04-16T08:48:15.710Z,76.87
2023-04-16T08:50:44.229Z,76.48
2023-04-16T08:53:18.681Z,76.24
2023-04-16T08:55:50.759Z,76.33
2023-04-16T08:58:23.065Z,75.06
2023-04-16T09:00:52.161Z,75.91
2023-04-16T09:03:21.618Z,76.17
2023-04-16T09:05:50.560Z,75.81
2023-04-16T09:08:18.604Z,75.65
2023-04-16T09:10:46.964Z,75.91
2023-04-16T09:13:17.011Z,75.79
2023-04-16T09:15:44.917Z,75.61
2023-04-16T09:18:12.851Z,75.45
2023-04-16T09:20:40.624Z,75.53
2023-04-16T09:23:09.460Z,74.86
2023-04-16T09:25:38.632Z,75.33
2023-04-16T09:28:06.418Z,74.43
2023-04-16T09:30:34.956Z,73.74
2023-04-16T09:33:23.189Z,74.28
2023-04-16T09:35:53.180Z,74.68
2023-04-16T09:38:21.210Z,74.72
2023-04-16T09:41:08.912Z,73.71
2023-04-16T09:43:37.030Z,74.12
2023-04-16T09:46:08.214Z,73.35
2023-04-16T09:48:36.668Z,73.39
2023-04-16T09:51:06.558Z,73.14
2023-04-16T09:53:34.346Z,73.40
2023-04-16T09:56:04.948Z,73.42
2023-04-16T09:58:36.524Z,72.35
2023-04-16T10:01:04.208Z,71.87
2023-04-16T10:03:36.778Z,72.07
2023-04-16T10:06:09.564Z,72.88
2023-04-16T10:08:37.327Z,72.89
2023-04-16T10:11:05.533Z,71.59
2023-04-16T10:13:33.285Z,72.36
2023-04-16T10:16:01.716Z,71.85
2023-04-16T10:18:29.556Z,72.61
2023-04-16T10:20:57.663Z,71.49
2023-04-16T10:23:26.429Z,72.04
2023-04-16T10:25:57.528Z,71.72
2023-04-16T10:28:29.536Z,71.15
2023-04-16T10:30:58.789Z,72.41
2023-04-16T10:33:33.490Z,72.00
2023-04-16T10:36:27.709Z,70.90
2023-04-16T10:38:58.449Z,71.04
2023-04-16T10:41:26.989Z,70.83
2023-04-16T10:44:07.075Z,70.94
2023-04-16T10:46:44.877Z,71.12
2023-04-16T10:49:20.431Z,70.70
2023-04-16T10:52:13.049Z,70.64
2023-04-16T10:54:41.407Z,68.91
2023-04-16T10:57:14.979Z,69.24
2023-04-16T10:59:43.872Z,69.97
2023-04-16T11:02:19.213Z,68.66
2023-04-16T11:04:49.209Z,68.35
2023-04-16T11:07:31.755Z,68.54
2023-04-16T11:10:04.157Z,69.02
2023-04-16T11:12:40.492Z,66.49
2023-04-16T11:15:13.453Z,67.78
2023-04-16T11:17:48.527Z,68.13
2023-04-16T11:20:19.771Z,68.71
2023-04-16T11:22:53.835Z,68.91
2023-04-16T11:25:22.966Z,68.71
2023-04-16T11:27:52.096Z,68.27
2023-04-16T11:30:33.433Z,68.47
2023-04-16T11:33:12.324Z,68.29
2023-04-16T11:35:43.347Z,68.06
2023-04-16T11:38:11.035Z,68.40
2023-04-16T11:40:38.641Z,68.51
2023-04-16T11:43:16.825Z,68.45
2023-04-16T11:46:10.026Z,68.31
2023-04-16T11:48:50.372Z,67.49
2023-04-16T11:51:19.335Z,68.02
2023-04-16T11:53:53.171Z,68.07
2023-04-16T11:56:32.976Z,68.02
2023-04-16T11:59:24.201Z,68.22
2023-04-16T12:01:58.032Z,67.94
2023-04-16T12:04:27.743Z,67.76
2023-04-16T12:07:10.123Z,67.90
2023-04-16T12:09:40.784Z,67.93
2023-04-16T12:12:31.660Z,67.89
2023-04-16T12:15:03.609Z,67.74
2023-04-16T12:17:35.391Z,67.86
2023-04-16T12:20:08.441Z,67.80
2023-04-16T12:22:38.078Z,67.41
2023-04-16T12:25:10.660Z,67.49
2023-04-16T12:28:08.201Z,66.92
2023-04-16T12:30:51.502Z,67.50
2023-04-16T12:33:19.602Z,67.31
2023-04-16T12:35:47.457Z,67.26
2023-04-16T12:38:15.539Z,67.24
2023-04-16T12:40:43.717Z,66.95
2023-04-16T12:43:11.992Z,67.02
2023-04-16T12:45:40.590Z,66.82
2023-04-16T12:48:08.442Z,65.87
2023-04-16T12:50:36.209Z,65.10
2023-04-16T12:53:04.063Z,65.79
2023-04-16T12:55:31.836Z,66.32
2023-04-16T12:57:59.539Z,65.45
2023-04-16T13:00:27.357Z,65.32
2023-04-16T13:02:55.177Z,64.82
2023-04-16T13:05:22.984Z,65.47
2023-04-16T13:07:50.698Z,63.92
2023-04-16T13:10:21.571Z,64.66
2023-04-16T13:12:49.358Z,64.70
2023-04-16T13:15:17.207Z,65.05
2023-04-16T13:17:45.057Z,64.90
2023-04-16T13:20:12.955Z,65.07
2023-04-16T13:22:40.861Z,65.09
2023-04-16T13:25:09.359Z,65.13
2023-04-16T13:27:37.170Z,62.83
2023-04-16T13:30:05.877Z,64.76
2023-04-16T13:32:33.861Z,64.11
2023-04-16T13:35:01.778Z,63.65
2023-04-16T13:37:29.474Z,61.54
2023-04-16T13:39:57.195Z,62.03
2023-04-16T13:42:24.856Z,62.79
2023-04-16T13:44:55.046Z,63.28
2023-04-16T13:47:22.957Z,62.91
2023-04-16T13:49:50.828Z,63.42
2023-04-16T13:52:18.572Z,63.65
2023-04-16T13:54:46.258Z,63.59
2023-04-16T13:57:14.240Z,63.51
2023-04-16T13:59:42.076Z,63.78
2023-04-16T14:02:14.308Z,63.16
2023-04-16T14:04:42.068Z,63.51
2023-04-16T14:07:09.734Z,63.12
2023-04-16T14:09:37.672Z,63.10
2023-04-16T14:12:05.970Z,62.81
2023-04-16T14:14:33.895Z,62.73
2023-04-16T14:17:03.425Z,62.08
2023-04-16T14:19:31.349Z,62.03
2023-04-16T14:21:59.115Z,62.30
2023-04-16T14:24:26.876Z,61.60
2023-04-16T14:26:54.526Z,61.14
2023-04-16T14:29:22.281Z,60.76
2023-04-16T14:31:50.512Z,61.09
2023-04-16T14:34:18.248Z,61.35
2023-04-16T14:36:46.027Z,60.62
2023-04-16T14:39:13.760Z,60.40
2023-04-16T14:41:41.631Z,60.61
2023-04-16T14:44:09.234Z,60.96
2023-04-16T14:46:38.619Z,60.42
2023-04-16T14:49:06.533Z,61.03
2023-04-16T14:51:34.284Z,59.52
2023-04-16T14:54:02.183Z,58.93
2023-04-16T14:56:30.205Z,59.97
2023-04-16T14:58:57.916Z,60.22
2023-04-16T15:01:26.281Z,60.21
2023-04-16T15:03:56.611Z,59.99
2023-04-16T15:06:24.476Z,60.30
2023-04-16T15:08:52.236Z,60.20
2023-04-16T15:11:20.024Z,59.99
2023-04-16T15:13:47.708Z,60.36
2023-04-16T15:16:15.451Z,60.46
2023-04-16T15:18:43.410Z,59.96
2023-04-16T15:21:12.556Z,60.19
2023-04-16T15:23:40.668Z,60.66
2023-04-16T15:26:08.408Z,60.52
2023-04-16T15:28:36.061Z,60.64
2023-04-16T15:31:03.771Z,60.17
2023-04-16T15:33:31.514Z,60.28
2023-04-16T15:35:59.198Z,60.06
2023-04-16T15:38:28.782Z,60.55
2023-04-16T15:40:59.823Z,60.19
2023-04-16T15:43:29.120Z,60.42
2023-04-16T15:45:57.400Z,60.61
2023-04-16T15:48:25.110Z,60.55
2023-04-16T15:50:54.264Z,60.48
2023-04-16T15:53:22.307Z,60.55
2023-04-16T15:55:52.685Z,60.50
2023-04-16T15:58:23.594Z,60.94
2023-04-16T16:00:51.541Z,61.00
2023-04-16T16:03:20.123Z,60.73
2023-04-16T16:05:48.620Z,60.67
2023-04-16T16:08:16.818Z,60.80
2023-04-16T16:10:44.700Z,60.58
2023-04-16T16:13:14.111Z,60.84
2023-04-16T16:15:42.624Z,60.83
2023-04-16T16:18:10.831Z,60.97
2023-04-16T16:20:40.662Z,61.26
2023-04-16T16:23:08.420Z,61.03
2023-04-16T16:25:36.355Z,61.03
2023-04-16T16:28:06.651Z,60.92
2023-04-16T16:30:34.527Z,61.06
2023-04-16T16:33:02.301Z,61.03
2023-04-16T16:35:30.081Z,60.95
2023-04-16T16:37:59.481Z,61.08
2023-04-16T16:40:27.929Z,61.08
2023-04-16T16:42:56.185Z,61.08
2023-04-16T16:45:26.321Z,60.76
2023-04-16T16:47:55.008Z,61.27
2023-04-16T16:50:22.910Z,61.34
2023-04-16T16:52:50.858Z,61.25
2023-04-16T16:55:19.116Z,61.47
2023-04-16T16:57:47.115Z,61.53
2023-04-16T17:00:16.347Z,61.70
2023-04-16T17:02:44.556Z,61.87
2023-04-16T17:05:13.085Z,61.91
2023-04-16T17:07:40.824Z,62.11
2023-04-16T17:10:15.863Z,62.51
2023-04-16T17:12:43.548Z,62.56
2023-04-16T17:15:11.887Z,63.43
2023-04-16T17:17:39.778Z,63.01
2023-04-16T17:20:10.006Z,63.27
2023-04-16T17:22:39.126Z,63.61
2023-04-16T17:25:08.222Z,63.68
2023-04-16T17:27:36.309Z,64.56
2023-04-16T17:30:05.840Z,64.34
2023-04-16T17:32:33.773Z,64.16
2023-04-16T17:35:04.515Z,64.92
2023-04-16T17:37:32.692Z,64.64
2023-04-16T17:40:00.540Z,65.03
2023-04-16T17:42:28.246Z,65.25
2023-04-16T17:44:56.031Z,65.73
2023-04-16T17:47:23.783Z,66.10
2023-04-16T17:49:55.555Z,66.51
2023-04-16T17:52:23.387Z,66.45
2023-04-16T17:54:51.286Z,66.65
2023-04-16T17:57:19.035Z,66.61
2023-04-16T17:59:46.800Z,66.02
2023-04-16T18:02:14.902Z,66.33
2023-04-16T18:04:43.045Z,67.24
2023-04-16T18:07:11.568Z,67.30
2023-04-16T18:09:39.377Z,67.34
2023-04-16T18:12:07.542Z,68.02
2023-04-16T18:14:35.999Z,67.65
2023-04-16T18:17:06.243Z,67.75
2023-04-16T18:19:35.610Z,68.60
2023-04-16T18:22:03.882Z,67.86
2023-04-16T18:24:33.498Z,68.88
2023-04-16T18:27:01.734Z,68.51
2023-04-16T18:29:29.571Z,68.28
2023-04-16T18:31:57.435Z,67.97
2023-04-16T18:34:26.026Z,69.39
2023-04-16T18:36:54.162Z,69.97
2023-04-16T18:39:21.997Z,70.11
2023-04-16T18:41:49.919Z,69.04
2023-04-16T18:44:19.920Z,69.19
2023-04-16T18:46:48.650Z,69.23
2023-04-16T18:49:16.529Z,69.98
2023-04-16T18:51:44.294Z,69.24
2023-04-16T18:54:12.103Z,69.50
2023-04-16T18:56:39.889Z,69.78
2023-04-16T18:59:07.710Z,70.77
2023-04-16T19:01:35.740Z,70.02
2023-04-16T19:04:03.845Z,69.78
2023-04-16T19:06:32.542Z,70.77
2023-04-16T19:09:00.257Z,71.67
2023-04-16T19:11:28.039Z,71.22
2023-04-16T19:13:57.497Z,72.12
2023-04-16T19:16:25.307Z,71.56
2023-04-16T19:18:53.100Z,71.47
2023-04-16T19:21:20.792Z,71.17
2023-04-16T19:23:49.117Z,71.11
2023-04-16T19:26:16.870Z,71.12
2023-04-16T19:28:45.827Z,71.97
2023-04-16T19:31:13.571Z,71.63
2023-04-16T19:33:41.685Z,71.97
2023-04-16T19:36:09.444Z,71.98
2023-04-16T19:38:37.261Z,72.28
2023-04-16T19:41:05.099Z,72.24
2023-04-16T19:43:33.355Z,72.21
2023-04-16T19:46:01.375Z,71.99
2023-04-16T19:48:30.581Z,71.70
2023-04-16T19:51:03.296Z,70.96
2023-04-16T19:53:31.072Z,72.16
2023-04-16T19:55:58.967Z,73.00
2023-04-16T19:58:27.210Z,73.24
2023-04-16T20:00:55.837Z,72.37
2023-04-16T20:03:23.700Z,73.10
2023-04-16T20:05:51.372Z,72.63
2023-04-16T20:08:19.403Z,73.72
2023-04-16T20:10:47.060Z,73.96
2023-04-16T20:13:16.716Z,74.07
2023-04-16T20:15:47.288Z,73.95
2023-04-16T20:18:15.451Z,74.34
2023-04-16T20:20:43.188Z,73.79
2023-04-16T20:23:11.288Z,73.48
2023-04-16T20:25:43.065Z,73.61
2023-04-16T20:28:10.821Z,73.91
2023-04-16T20:30:41.472Z,74.01
2023-04-16T20:33:09.619Z,73.50
2023-04-16T20:35:37.656Z,73.92
2023-04-16T20:38:05.389Z,74.16
2023-04-16T20:40:33.396Z,74.36
2023-04-16T20:43:01.178Z,73.99
2023-04-16T20:45:32.233Z,74.46
2023-04-16T20:48:00.141Z,74.38
2023-04-16T20:50:27.987Z,74.89
2023-04-16T20:52:56.398Z,74.13
2023-04-16T20:55:24.570Z,74.58
2023-04-16T20:57:52.446Z,74.19
2023-04-16T21:00:20.591Z,74.87
2023-04-16T21:02:48.437Z,74.16
2023-04-16T21:05:16.354Z,74.48
2023-04-16T21:07:44.074Z,74.44
2023-04-16T21:10:11.991Z,74.49
2023-04-16T21:12:39.834Z,74.39
2023-04-16T21:15:07.901Z,74.42
2023-04-16T21:17:35.930Z,74.57
2023-04-16T21:20:06.982Z,74.56
2023-04-16T21:22:34.811Z,74.84
2023-04-16T21:25:02.765Z,75.10
2023-04-16T21:27:30.523Z,74.85
2023-04-16T21:29:58.306Z,74.81
2023-04-16T21:32:26.091Z,74.81
2023-04-16T21:34:53.926Z,74.96
2023-04-16T21:37:21.579Z,75.24
2023-04-16T21:39:49.383Z,75.97
2023-04-16T21:42:17.107Z,75.30
2023-04-16T21:44:44.712Z,75.11
2023-04-16T21:47:12.908Z,75.17
2023-04-16T21:49:42.312Z,75.44
2023-04-16T21:52:18.397Z,75.59
2023-04-16T21:54:47.016Z,75.18
2023-04-16T21:57:14.856Z,75.54
2023-04-16T21:59:42.490Z,75.50
2023-04-16T22:02:10.229Z,75.49
2023-04-16T22:04:39.020Z,75.75
2023-04-16T22:07:09.007Z,75.84
2023-04-16T22:09:36.851Z,75.80
2023-04-16T22:12:12.199Z,75.91
2023-04-16T22:14:46.232Z,76.13
2023-04-16T22:17:17.188Z,75.98
2023-04-16T22:19:45.584Z,76.63
2023-04-16T22:22:13.564Z,77.16
2023-04-16T22:24:42.738Z,77.01
2023-04-16T22:27:10.744Z,77.31
2023-04-16T22:29:38.386Z,77.50
2023-04-16T22:32:06.082Z,76.37
2023-04-16T22:34:33.898Z,77.60
2023-04-16T22:37:03.145Z,77.99
2023-04-16T22:39:31.701Z,77.78
2023-04-16T22:41:59.679Z,78.43
2023-04-16T22:44:27.336Z,79.21
2023-04-16T22:46:55.036Z,77.75
2023-04-16T22:49:22.694Z,78.10
2023-04-16T22:51:50.353Z,77.10
2023-04-16T22:54:17.978Z,77.72
2023-04-16T22:56:48.734Z,77.40
2023-04-16T22:59:16.530Z,77.60
2023-04-16T23:01:44.279Z,77.79
2023-04-16T23:04:12.182Z,78.28
2023-04-16T23:06:41.000Z,78.11
2023-04-16T23:09:09.484Z,78.35
2023-04-16T23:11:37.236Z,78.72
2023-04-16T23:14:05.223Z,78.75
2023-04-16T23:16:32.851Z,78.06
2023-04-16T23:19:00.468Z,77.61
2023-04-16T23:21:28.673Z,77.92
2023-04-16T23:23:57.156Z,78.37
2023-04-16T23:26:24.840Z,78.37
2023-04-16T23:28:52.461Z,78.64
2023-04-16T23:31:20.190Z,78.71
2023-04-16T23:33:47.918Z,78.61
2023-04-16T23:36:15.785Z,79.11
2023-04-16T23:38:43.453Z,79.13
2023-04-16T23:41:11.143Z,79.21
2023-04-16T23:43:40.697Z,78.45
2023-04-16T23:46:08.528Z,78.31
2023-04-16T23:48:36.327Z,78.21
2023-04-16T23:51:04.427Z,78.53
2023-04-16T23:53:32.055Z,78.36
2023-04-16T23:55:59.660Z,78.75
2023-04-16T23:58:27.390Z,79.12
